createdAt,value
2023-12-31T03:41:58.382Z,12.64
2023-12-31T03:44:25.010Z,11.36
2023-12-31T03:46:51.936Z,9.60
2023-12-31T03:49:18.609Z,8.31
2023-12-31T03:51:45.251Z,8.37
2023-12-31T03:54:11.885Z,7.87
2023-12-31T03:56:38.493Z,8.03
2023-12-31T03:59:05.129Z,8.27
2023-12-31T04:01:31.758Z,8.51
2023-12-31T04:03:58.431Z,8.77
2023-12-31T04:06:25.039Z,8.84
2023-12-31T04:08:51.661Z,8.97
2023-12-31T04:11:18.246Z,9.34
2023-12-31T04:13:44.911Z,9.75
2023-12-31T04:16:11.545Z,10.24
2023-12-31T04:18:38.453Z,9.37
2023-12-31T04:21:05.100Z,9.31
2023-12-31T04:23:31.686Z,8.88
2023-12-31T04:25:58.314Z,8.80
2023-12-31T04:28:24.989Z,9.99
2023-12-31T04:30:51.755Z,9.66
2023-12-31T04:33:18.410Z,9.99
2023-12-31T04:35:51.060Z,10.79
2023-12-31T04:38:18.562Z,11.58
2023-12-31T04:40:45.223Z,11.74
2023-12-31T04:43:11.880Z,11.66
2023-12-31T04:45:38.616Z,11.59
2023-12-31T04:48:05.353Z,11.89
2023-12-31T04:50:32.148Z,11.52
2023-12-31T04:52:58.875Z,11.45
2023-12-31T04:55:25.512Z,12.00
2023-12-31T04:57:52.122Z,12.81
2023-12-31T05:00:18.703Z,13.27
2023-12-31T05:02:45.288Z,13.03
2023-12-31T05:05:11.905Z,12.89
2023-12-31T05:07:38.564Z,12.04
2023-12-31T05:10:05.185Z,12.11
2023-12-31T05:12:31.790Z,12.30
2023-12-31T05:14:58.398Z,12.73
2023-12-31T05:17:25.089Z,12.29
2023-12-31T05:19:51.839Z,11.98
2023-12-31T05:22:18.527Z,12.17
2023-12-31T05:24:45.147Z,12.57
2023-12-31T05:27:11.754Z,11.34
2023-12-31T05:29:38.365Z,10.50
2023-12-31T05:32:04.997Z,11.03
2023-12-31T05:34:31.649Z,11.22
2023-12-31T05:36:58.366Z,11.38
2023-12-31T05:39:24.962Z,11.89
2023-12-31T05:41:51.579Z,11.43
2023-12-31T05:44:18.193Z,10.42
2023-12-31T05:46:44.854Z,9.56
2023-12-31T05:49:11.578Z,9.61
2023-12-31T05:51:38.282Z,8.06
2023-12-31T05:54:04.872Z,8.01
2023-12-31T05:56:31.486Z,7.14
2023-12-31T05:58:58.108Z,6.53
2023-12-31T06:01:24.738Z,7.46
2023-12-31T06:03:51.503Z,6.27
2023-12-31T06:06:18.213Z,5.60
2023-12-31T06:08:44.842Z,5.36
2023-12-31T06:11:11.444Z,5.25
2023-12-31T06:13:38.052Z,5.55
2023-12-31T06:16:04.652Z,5.10
2023-12-31T06:18:31.250Z,4.78
2023-12-31T06:20:57.915Z,4.78
2023-12-31T06:23:24.513Z,4.61
2023-12-31T06:25:51.232Z,4.46
2023-12-31T06:28:17.942Z,4.67
2023-12-31T06:30:44.656Z,4.72
2023-12-31T06:33:11.454Z,4.73
2023-12-31T06:35:38.092Z,4.19
2023-12-31T06:38:04.674Z,4.74
2023-12-31T06:40:31.312Z,4.63
2023-12-31T06:42:57.942Z,4.76
2023-12-31T06:45:24.519Z,5.10
2023-12-31T06:47:51.165Z,5.79
2023-12-31T06:50:17.878Z,5.48
2023-12-31T06:52:44.360Z,4.78
2023-12-31T06:55:10.830Z,4.42
2023-12-31T06:57:37.290Z,4.50
2023-12-31T07:00:03.781Z,5.08
2023-12-31T07:02:30.281Z,4.79
2023-12-31T07:04:56.785Z,4.62
2023-12-31T07:07:23.310Z,4.70
2023-12-31T07:09:49.790Z,5.06
2023-12-31T07:12:16.243Z,5.12
2023-12-31T07:14:42.666Z,5.03
2023-12-31T07:17:09.075Z,4.74
2023-12-31T07:19:35.583Z,4.64
2023-12-31T07:22:02.066Z,4.83
2023-12-31T07:24:28.515Z,4.48
2023-12-31T07:26:54.948Z,4.52
2023-12-31T07:29:21.377Z,4.91
2023-12-31T07:31:47.863Z,5.07
2023-12-31T07:34:14.400Z,5.08
2023-12-31T07:36:40.903Z,5.51
2023-12-31T07:39:07.350Z,5.51
2023-12-31T07:41:33.789Z,5.27
2023-12-31T07:44:00.251Z,5.81
2023-12-31T07:46:26.780Z,5.56
2023-12-31T07:48:53.448Z,5.84
2023-12-31T07:51:20.272Z,5.46
2023-12-31T07:53:46.873Z,5.60
2023-12-31T07:56:13.484Z,5.41
2023-12-31T07:58:40.133Z,5.34
2023-12-31T08:01:06.807Z,5.39
2023-12-31T08:03:33.535Z,5.44
2023-12-31T08:06:00.266Z,5.71
2023-12-31T08:08:26.916Z,5.79
2023-12-31T08:10:53.615Z,5.71
2023-12-31T08:13:20.456Z,5.99
2023-12-31T08:15:47.220Z,6.07
2023-12-31T08:18:14.057Z,5.83
2023-12-31T08:20:40.812Z,6.20
2023-12-31T08:23:07.811Z,6.82
2023-12-31T08:25:34.706Z,6.05
2023-12-31T08:28:01.333Z,6.28
2023-12-31T08:30:27.986Z,5.97
2023-12-31T08:32:54.648Z,6.04
2023-12-31T08:35:21.377Z,7.79
2023-12-31T08:37:48.093Z,11.47
2023-12-31T08:40:14.821Z,8.07
2023-12-31T08:42:41.441Z,6.46
2023-12-31T08:45:08.026Z,5.96
2023-12-31T08:47:34.657Z,5.43
2023-12-31T08:50:01.419Z,5.27
2023-12-31T08:52:28.074Z,4.85
2023-12-31T08:54:54.648Z,5.06
2023-12-31T08:57:21.293Z,5.31
2023-12-31T08:59:47.906Z,5.51
2023-12-31T09:02:14.486Z,6.41
2023-12-31T09:04:41.136Z,5.41
2023-12-31T09:07:08.817Z,5.31
2023-12-31T09:09:35.413Z,5.36
2023-12-31T09:12:02.004Z,5.62
2023-12-31T09:14:28.603Z,4.97
2023-12-31T09:16:55.275Z,4.52
2023-12-31T09:19:21.946Z,4.91
2023-12-31T09:21:48.565Z,4.53
2023-12-31T09:24:15.186Z,4.45
2023-12-31T09:26:41.783Z,4.47
2023-12-31T09:29:08.402Z,4.41
2023-12-31T09:31:34.996Z,4.19
2023-12-31T09:34:01.708Z,4.19
2023-12-31T09:36:28.353Z,4.04
2023-12-31T09:38:54.970Z,3.78
2023-12-31T09:41:21.551Z,3.75
2023-12-31T09:43:48.167Z,3.90
2023-12-31T09:46:14.866Z,4.12
2023-12-31T09:48:41.611Z,3.92
2023-12-31T09:51:08.236Z,4.22
2023-12-31T09:53:34.910Z,3.75
2023-12-31T09:56:01.564Z,3.87
2023-12-31T09:58:28.219Z,4.13
2023-12-31T10:00:54.862Z,4.28
2023-12-31T10:03:21.571Z,4.15
2023-12-31T10:05:48.226Z,3.73
2023-12-31T10:08:14.876Z,3.81
2023-12-31T10:10:41.578Z,3.99
2023-12-31T10:13:08.202Z,3.71
2023-12-31T10:15:34.806Z,3.56
2023-12-31T10:18:03.694Z,3.65
2023-12-31T10:20:31.183Z,3.46
2023-12-31T10:22:57.832Z,3.37
2023-12-31T10:25:24.580Z,3.50
2023-12-31T10:27:51.227Z,3.36
2023-12-31T10:30:17.937Z,2.95
2023-12-31T10:32:44.749Z,2.78
2023-12-31T10:35:11.407Z,2.71
2023-12-31T10:37:38.145Z,2.84
2023-12-31T10:40:04.801Z,2.74
2023-12-31T10:42:31.421Z,2.87
2023-12-31T10:44:57.995Z,2.72
2023-12-31T10:47:24.657Z,2.94
2023-12-31T10:49:51.483Z,2.90
2023-12-31T10:52:18.278Z,2.88
2023-12-31T10:54:44.937Z,2.77
2023-12-31T10:57:11.536Z,3.01
2023-12-31T10:59:38.168Z,3.04
2023-12-31T11:02:04.832Z,3.23
2023-12-31T11:04:31.567Z,3.17
2023-12-31T11:06:58.277Z,3.24
2023-12-31T11:09:24.864Z,3.40
2023-12-31T11:11:51.493Z,3.26
2023-12-31T11:14:18.104Z,3.50
2023-12-31T11:16:44.740Z,3.51
2023-12-31T11:19:11.423Z,3.60
2023-12-31T11:21:38.114Z,3.20
2023-12-31T11:24:04.750Z,3.05
2023-12-31T11:26:31.351Z,2.62
2023-12-31T11:28:57.998Z,1.68
2023-12-31T11:31:24.746Z,0.67
2023-12-31T11:33:51.549Z,0.29
2023-12-31T11:36:18.346Z,0.22
2023-12-31T11:38:44.941Z,0.17
2023-12-31T11:41:11.547Z,0.13
2023-12-31T11:43:38.240Z,0.10
2023-12-31T11:46:04.870Z,0.09
2023-12-31T11:48:31.599Z,0.15
2023-12-31T11:50:58.243Z,0.13
2023-12-31T11:53:24.855Z,0.04
2023-12-31T11:55:51.511Z,0.04
2023-12-31T11:58:18.205Z,0.03
2023-12-31T12:00:44.840Z,0.12
2023-12-31T12:03:11.493Z,0.06
2023-12-31T12:05:38.089Z,0.06
2023-12-31T12:08:04.716Z,0.04
2023-12-31T12:10:31.411Z,0.07
2023-12-31T12:13:00.810Z,0.03
2023-12-31T12:15:27.790Z,0.06
2023-12-31T12:17:54.484Z,0.03
2023-12-31T12:20:21.349Z,0.11
2023-12-31T12:22:48.038Z,0.05
2023-12-31T12:25:14.646Z,0.10
2023-12-31T12:27:41.249Z,0.05
2023-12-31T12:30:07.960Z,0.07
2023-12-31T12:32:34.629Z,0.06
2023-12-31T12:35:01.400Z,0.06
2023-12-31T12:37:28.153Z,0.06
2023-12-31T12:39:54.875Z,0.03
2023-12-31T12:42:21.489Z,0.28
2023-12-31T12:44:48.208Z,0.16
2023-12-31T12:47:14.893Z,0.08
2023-12-31T12:49:41.551Z,0.04
2023-12-31T12:52:08.150Z,0.03
2023-12-31T12:54:34.793Z,0.04
2023-12-31T12:57:01.414Z,0.07
2023-12-31T12:59:27.982Z,0.07
2023-12-31T13:01:54.652Z,0.06
2023-12-31T13:04:21.262Z,0.04
2023-12-31T13:06:47.908Z,0.12
2023-12-31T13:09:14.532Z,0.05
2023-12-31T13:11:41.105Z,0.10
2023-12-31T13:14:07.808Z,0.04
2023-12-31T13:16:40.780Z,0.06
2023-12-31T13:19:14.385Z,0.08
2023-12-31T13:21:41.082Z,0.05
2023-12-31T13:24:07.684Z,0.12
2023-12-31T13:26:34.286Z,0.16
2023-12-31T13:29:03.974Z,0.75
2023-12-31T13:31:31.450Z,1.00
2023-12-31T13:36:24.817Z,1.77
2023-12-31T13:38:51.443Z,0.86
2023-12-31T13:41:19.711Z,0.63
2023-12-31T13:43:48.439Z,1.10
2023-12-31T13:46:15.071Z,1.19
2023-12-31T13:48:41.707Z,1.87
2023-12-31T13:51:08.335Z,1.85
2023-12-31T13:53:34.913Z,1.32
2023-12-31T13:56:01.597Z,0.96
2023-12-31T13:58:28.271Z,1.29
2023-12-31T14:00:54.852Z,1.77
2023-12-31T14:03:21.477Z,1.81
2023-12-31T14:05:48.120Z,2.61
2023-12-31T14:08:14.747Z,2.82
2023-12-31T14:10:41.367Z,2.85
2023-12-31T14:13:07.985Z,4.79
2023-12-31T14:15:34.580Z,14.79
2023-12-31T14:18:01.307Z,9.07
2023-12-31T14:20:28.006Z,3.27
2023-12-31T14:22:54.659Z,2.48
2023-12-31T14:25:21.299Z,1.69
2023-12-31T14:27:47.920Z,1.57
2023-12-31T14:30:14.545Z,1.28
2023-12-31T14:32:43.979Z,1.30
2023-12-31T14:35:10.722Z,0.92
2023-12-31T14:37:37.421Z,1.36
2023-12-31T14:40:04.172Z,1.42
2023-12-31T14:42:30.766Z,1.32
2023-12-31T14:44:57.402Z,1.30
2023-12-31T14:47:24.049Z,1.06
2023-12-31T14:49:50.735Z,1.42
2023-12-31T14:52:17.382Z,2.41
2023-12-31T14:54:43.996Z,32.35
2023-12-31T14:57:10.613Z,52.21
2023-12-31T14:59:37.235Z,50.61
2023-12-31T15:02:03.906Z,44.74
2023-12-31T15:04:30.612Z,57.80
2023-12-31T15:06:57.270Z,76.47
2023-12-31T15:09:23.969Z,64.39
2023-12-31T15:11:50.752Z,69.81
2023-12-31T15:14:17.860Z,68.22
2023-12-31T15:16:44.604Z,65.14
2023-12-31T15:19:11.316Z,51.13
2023-12-31T15:21:37.997Z,49.66
2023-12-31T15:24:04.917Z,42.22
2023-12-31T15:26:31.534Z,40.07
2023-12-31T15:28:58.238Z,31.93
2023-12-31T15:31:25.000Z,24.55
2023-12-31T15:33:51.821Z,19.08
2023-12-31T15:36:18.467Z,9.04
2023-12-31T15:38:47.499Z,2.78
2023-12-31T15:41:15.485Z,2.68
2023-12-31T15:43:42.093Z,2.27
2023-12-31T15:46:08.744Z,1.72
2023-12-31T15:48:35.524Z,3.22
2023-12-31T15:51:02.163Z,1.70
2023-12-31T15:53:28.764Z,2.58
2023-12-31T15:55:55.452Z,7.05
2023-12-31T15:58:22.117Z,6.27
2023-12-31T16:00:48.761Z,2.43
2023-12-31T16:03:15.399Z,2.94
2023-12-31T16:05:42.065Z,2.33
2023-12-31T16:08:09.056Z,1.34
2023-12-31T16:10:36.035Z,1.29
2023-12-31T16:13:02.700Z,1.01
2023-12-31T16:15:29.278Z,1.21
2023-12-31T16:17:55.915Z,0.90
2023-12-31T16:20:22.632Z,1.23
2023-12-31T16:22:49.378Z,0.89
2023-12-31T16:25:16.003Z,0.80
2023-12-31T16:27:42.596Z,1.28
2023-12-31T16:30:09.241Z,1.52
2023-12-31T16:32:35.977Z,1.87
2023-12-31T16:35:02.696Z,3.93
2023-12-31T16:37:29.471Z,16.22
2023-12-31T16:39:56.180Z,22.27
2023-12-31T16:42:22.789Z,39.72
2023-12-31T16:44:49.488Z,44.33
2023-12-31T16:47:16.198Z,35.86
2023-12-31T16:49:42.832Z,69.41
2023-12-31T16:52:09.457Z,89.80
2023-12-31T16:54:36.081Z,68.87
2023-12-31T16:57:02.741Z,69.58
2023-12-31T16:59:29.349Z,60.57
2023-12-31T17:01:55.972Z,46.65
2023-12-31T17:04:22.742Z,9.01
2023-12-31T17:06:49.464Z,14.12
2023-12-31T17:09:16.180Z,21.88
2023-12-31T17:11:42.773Z,8.85
2023-12-31T17:14:09.430Z,3.59
2023-12-31T17:16:36.152Z,3.76
2023-12-31T17:19:02.814Z,2.68
2023-12-31T17:21:29.440Z,1.14
2023-12-31T17:23:56.020Z,0.80
2023-12-31T17:26:22.611Z,0.84
2023-12-31T17:28:49.233Z,2.10
2023-12-31T17:31:15.848Z,3.14
2023-12-31T17:33:42.482Z,3.95
2023-12-31T17:36:09.100Z,3.24
2023-12-31T17:38:35.718Z,4.26
2023-12-31T17:41:02.405Z,23.88
2023-12-31T17:43:29.040Z,68.20
2023-12-31T17:45:55.638Z,54.15
2023-12-31T17:48:22.346Z,38.53
2023-12-31T17:50:49.067Z,13.94
2023-12-31T17:53:15.669Z,4.21
2023-12-31T17:55:42.292Z,1.95
2023-12-31T17:58:08.894Z,1.53
2023-12-31T18:00:35.502Z,1.85
2023-12-31T18:03:02.170Z,2.11
2023-12-31T18:05:28.888Z,2.13
2023-12-31T18:07:55.577Z,2.13
2023-12-31T18:10:22.285Z,1.84
2023-12-31T18:12:48.968Z,1.87
2023-12-31T18:15:15.677Z,1.55
2023-12-31T18:17:42.285Z,1.41
2023-12-31T18:20:09.109Z,1.49
2023-12-31T18:22:35.839Z,1.84
2023-12-31T18:25:02.517Z,2.19
2023-12-31T18:27:29.132Z,2.21
2023-12-31T18:30:06.967Z,3.25
2023-12-31T18:32:38.271Z,3.33
2023-12-31T18:35:04.889Z,3.13
2023-12-31T18:37:31.539Z,2.04
2023-12-31T18:39:58.187Z,3.76
2023-12-31T18:42:24.779Z,5.60
2023-12-31T18:44:51.466Z,4.41
2023-12-31T18:47:18.057Z,8.91
2023-12-31T18:49:44.886Z,9.05
2023-12-31T18:52:11.508Z,3.75
2023-12-31T18:54:38.351Z,4.00
2023-12-31T18:57:04.931Z,3.50
2023-12-31T18:59:31.651Z,2.78
2023-12-31T19:01:58.332Z,2.38
2023-12-31T19:04:25.086Z,2.96
2023-12-31T19:06:51.816Z,2.89
2023-12-31T19:09:18.407Z,2.12
2023-12-31T19:11:45.042Z,2.20
2023-12-31T19:14:11.844Z,2.34
2023-12-31T19:16:38.579Z,2.47
2023-12-31T19:19:05.468Z,2.12
2023-12-31T19:21:32.261Z,1.93
2023-12-31T19:23:58.950Z,1.95
2023-12-31T19:26:25.559Z,2.21
2023-12-31T19:28:52.175Z,2.14
2023-12-31T19:31:18.779Z,2.69
2023-12-31T19:33:45.390Z,2.96
2023-12-31T19:36:12.030Z,2.35
2023-12-31T19:38:38.617Z,2.82
2023-12-31T19:41:05.356Z,4.03
2023-12-31T19:46:01.486Z,4.81
2023-12-31T19:48:28.138Z,4.89
2023-12-31T19:50:54.852Z,4.01
2023-12-31T19:53:22.269Z,2.61
2023-12-31T19:55:50.600Z,2.21
2023-12-31T19:58:17.261Z,1.88
2023-12-31T20:00:43.890Z,1.30
2023-12-31T20:03:10.510Z,1.61
2023-12-31T20:05:37.165Z,1.99
2023-12-31T20:08:03.987Z,10.60
2023-12-31T20:10:30.686Z,15.48
2023-12-31T20:12:57.324Z,6.49
2023-12-31T20:15:23.973Z,3.68
2023-12-31T20:17:50.830Z,3.47
2023-12-31T20:20:17.625Z,3.83
2023-12-31T20:22:44.287Z,4.10
2023-12-31T20:25:10.928Z,1.62
2023-12-31T20:27:37.545Z,1.14
2023-12-31T20:30:04.286Z,2.25
